Time;durP1;ratioP1;P1;durP2;ratioP2;P2;SDS_P1;SDS_P2;PMS_P1;PMS_P2;Temp;Humidity;BMP_temperature;BMP_pressure;BME280_temperature;BME280_humidity;BME280_pressure;Samples;Min_cycle;Max_cycle;Signal;HPM_P1;HPM_P2
2023/06/15 00:01:36;;;;;;;3.20;3.00;;;;;;;17.14;49.28;98914.28;5119790;27;41450;-72
2023/06/15 00:04:06;;;;;;;2.73;2.53;;;;;;;17.09;49.62;98907.63;5154447;27;40021;-73
2023/06/15 00:06:39;;;;;;;3.23;2.93;;;;;;;17.07;49.80;98913.09;5119995;27;41603;-72
2023/06/15 00:09:06;;;;;;;2.77;2.40;;;;;;;17.03;50.22;98916.19;5136184;27;42780;-74
2023/06/15 00:11:34;;;;;;;3.20;3.00;;;;;;;16.98;50.51;98908.56;5136795;27;43210;-73
2023/06/15 00:14:01;;;;;;;3.43;3.13;;;;;;;16.96;50.12;98915.88;5136758;27;39341;-74
2023/06/15 00:16:31;;;;;;;2.87;2.67;;;;;;;16.93;50.07;98910.81;5136474;27;41755;-74
2023/06/15 00:19:02;;;;;;;2.90;2.60;;;;;;;16.87;50.51;98912.19;5119498;27;41848;-73
2023/06/15 00:21:30;;;;;;;3.13;2.83;;;;;;;16.83;50.66;98900.06;5155207;27;42191;-74
2023/06/15 00:23:58;;;;;;;2.63;2.43;;;;;;;16.79;50.51;98898.66;5136657;27;40744;-72
2023/06/15 00:26:27;;;;;;;3.10;2.90;;;;;;;16.81;50.44;98917.25;5118963;27;41767;-73
2023/06/15 00:28:55;;;;;;;4.13;2.90;;;;;;;16.78;50.70;98913.00;5136260;27;42778;-73
2023/06/15 00:31:23;;;;;;;2.70;2.50;;;;;;;16.76;50.92;98912.28;5118960;27;41519;-73
2023/06/15 00:33:51;;;;;;;2.77;2.57;;;;;;;16.73;50.34;98915.22;5119933;27;39030;-73
2023/06/15 00:36:21;;;;;;;3.17;2.97;;;;;;;16.67;50.43;98913.09;5155804;27;41713;-73
2023/06/15 00:38:49;;;;;;;2.70;2.50;;;;;;;16.68;50.16;98919.28;5120183;27;41618;-74
2023/06/15 00:41:16;;;;;;;2.40;2.20;;;;;;;16.65;50.40;98923.06;5119617;27;42301;-74
2023/06/15 00:43:44;;;;;;;2.57;2.37;;;;;;;16.61;50.91;98920.75;5137095;27;40389;-74
2023/06/15 00:46:14;;;;;;;4.20;3.13;;;;;;;16.58;51.03;98924.53;5119594;27;40943;-73
2023/06/15 00:48:43;;;;;;;3.53;2.97;;;;;;;16.54;51.57;98915.09;5156005;27;42223;-73
2023/06/15 00:51:11;;;;;;;2.83;2.63;;;;;;;16.50;51.73;98913.66;5135724;27;43206;-73
2023/06/15 00:53:44;;;;;;;2.73;2.53;;;;;;;16.47;52.04;98913.91;5119840;27;39081;-74
2023/06/15 00:56:12;;;;;;;3.60;3.30;;;;;;;16.45;52.32;98915.84;5136504;27;41708;-73
2023/06/15 00:58:40;;;;;;;3.43;3.13;;;;;;;16.41;51.99;98914.44;5136882;27;41685;-72
2023/06/15 01:01:08;;;;;;;3.30;3.10;;;;;;;16.38;52.46;98909.34;5135874;27;42299;-73
2023/06/15 01:03:35;;;;;;;3.33;3.10;;;;;;;16.35;52.76;98910.47;5135319;27;39160;-74
2023/06/15 01:06:12;;;;;;;3.67;3.10;;;;;;;16.31;53.29;98918.88;5134895;27;42623;-73
2023/06/15 01:08:47;;;;;;;3.20;2.90;;;;;;;16.28;53.57;98908.44;5132714;27;42683;-74
2023/06/15 01:11:15;;;;;;;3.83;3.13;;;;;;;16.26;53.10;98911.25;5118292;27;42151;-75
2023/06/15 01:13:44;;;;;;;3.60;2.93;;;;;;;16.19;53.52;98903.91;5135889;27;40935;-74
2023/06/15 01:16:20;;;;;;;3.10;2.80;;;;;;;16.19;53.72;98904.75;5118163;27;40861;-73
2023/06/15 01:18:56;;;;;;;3.70;2.93;;;;;;;16.16;53.67;98910.34;5118347;27;41704;-73
2023/06/15 01:21:27;;;;;;;3.97;2.87;;;;;;;16.14;53.95;98905.13;5135552;27;42936;-73
2023/06/15 01:24:13;;;;;;;3.00;2.80;;;;;;;16.11;53.82;98899.19;5132635;27;39777;-73
2023/06/15 01:26:46;;;;;;;2.97;2.77;;;;;;;16.08;53.68;98896.75;5118541;27;40701;-74
2023/06/15 01:29:15;;;;;;;4.77;3.30;;;;;;;16.06;54.02;98904.09;5132372;27;42718;-75
2023/06/15 01:31:44;;;;;;;3.20;3.00;;;;;;;16.04;54.58;98898.88;5135130;27;42220;-74
2023/06/15 01:34:11;;;;;;;4.03;3.17;;;;;;;16.02;54.25;98902.63;5118695;27;41177;-74
2023/06/15 01:36:42;;;;;;;3.93;3.63;;;;;;;15.98;54.66;98902.03;5136248;27;43009;-74
2023/06/15 01:39:10;;;;;;;3.70;3.40;;;;;;;15.97;54.74;98904.84;5136368;27;42682;-73
2023/06/15 01:41:39;;;;;;;4.50;4.10;;;;;;;15.93;54.75;98898.91;5119132;27;41148;-74
2023/06/15 01:44:09;;;;;;;3.73;3.23;;;;;;;15.89;55.82;98892.13;5118837;27;40180;-74
2023/06/15 01:46:37;;;;;;;3.37;3.13;;;;;;;15.87;55.84;98899.41;5116693;27;42001;-73
2023/06/15 01:49:05;;;;;;;3.37;3.07;;;;;;;15.85;55.44;98890.69;5135316;27;42633;-73
2023/06/15 01:51:33;;;;;;;4.43;3.27;;;;;;;15.81;55.79;98894.59;5117562;27;42175;-72
2023/06/15 01:54:03;;;;;;;3.70;3.33;;;;;;;15.65;55.54;98873.66;5117919;27;39958;-74
2023/06/15 01:56:31;;;;;;;3.17;2.93;;;;;;;15.72;55.36;98885.50;5134718;27;41713;-74
2023/06/15 01:58:59;;;;;;;3.60;3.03;;;;;;;15.75;55.70;98892.44;5117921;27;41784;-75
2023/06/15 02:01:29;;;;;;;3.43;3.00;;;;;;;15.72;55.65;98884.66;5134716;27;42322;-73
2023/06/15 02:03:57;;;;;;;3.77;3.47;;;;;;;15.71;56.07;98888.31;5134777;27;40180;-75
2023/06/15 02:06:24;;;;;;;3.50;3.20;;;;;;;15.68;56.17;98889.44;5117365;27;40663;-73
2023/06/15 02:08:52;;;;;;;3.03;2.83;;;;;;;15.66;56.03;98891.38;5153216;27;42781;-74
2023/06/15 02:11:20;;;;;;;3.03;2.83;;;;;;;15.64;55.92;98895.16;5134778;27;42974;-74
2023/06/15 02:13:49;;;;;;;3.73;3.03;;;;;;;15.61;55.61;98892.72;5117639;27;40060;-75
2023/06/15 02:16:19;;;;;;;3.50;3.20;;;;;;;15.59;55.17;98894.66;5117169;27;40682;-75
2023/06/15 02:18:48;;;;;;;2.80;2.60;;;;;;;15.56;55.44;98895.78;5117388;27;42785;-73
2023/06/15 02:21:16;;;;;;;3.47;2.93;;;;;;;15.52;55.50;98899.63;5116800;27;42146;-72
2023/06/15 02:23:45;;;;;;;3.00;2.80;;;;;;;15.50;55.44;98898.91;5134901;27;41899;-72
2023/06/15 02:26:13;;;;;;;3.10;2.90;;;;;;;15.46;55.68;98900.97;5134363;27;41702;-73
2023/06/15 02:28:41;;;;;;;3.33;2.93;;;;;;;15.34;56.05;98888.63;5134722;27;42801;-74
2023/06/15 02:31:08;;;;;;;3.37;3.07;;;;;;;15.41;57.05;98894.34;5134405;27;42067;-72
2023/06/15 02:33:37;;;;;;;3.90;3.60;;;;;;;15.37;57.34;98895.53;5134903;27;38775;-73
2023/06/15 02:36:07;;;;;;;3.60;3.30;;;;;;;15.35;57.06;98898.34;5135101;27;40516;-73
2023/06/15 02:38:37;;;;;;;4.30;3.13;;;;;;;15.34;57.07;98903.78;5153877;27;42562;-73
2023/06/15 02:41:05;;;;;;;3.07;2.80;;;;;;;15.26;57.43;98891.09;5117999;27;41986;-73
2023/06/15 02:43:32;;;;;;;3.73;3.43;;;;;;;15.29;57.72;98896.19;5135466;27;40715;-73
2023/06/15 02:46:00;;;;;;;4.40;3.00;;;;;;;15.23;57.53;98886.00;5135028;27;41871;-73
2023/06/15 02:48:28;;;;;;;5.30;3.23;;;;;;;15.27;57.39;98902.59;5117998;27;41780;-73
2023/06/15 02:50:55;;;;;;;3.83;3.43;;;;;;;15.25;57.26;98908.06;5134979;27;42938;-73
2023/06/15 02:53:26;;;;;;;3.07;2.87;;;;;;;15.20;57.76;98904.94;5135383;27;40785;-72
2023/06/15 02:55:58;;;;;;;3.70;3.40;;;;;;;15.20;57.85;98904.94;5134522;27;42645;-73
2023/06/15 02:58:26;;;;;;;3.90;3.50;;;;;;;15.16;58.87;98905.31;5135120;27;42784;-73
2023/06/15 03:01:23;;;;;;;3.30;3.07;;;;;;;15.15;58.73;98909.78;5130482;27;43178;-74
2023/06/15 03:03:54;;;;;;;3.77;3.47;;;;;;;15.12;59.03;98912.69;5117918;27;40254;-74
2023/06/15 03:06:25;;;;;;;3.57;3.27;;;;;;;15.10;59.32;98910.13;5117586;27;40706;-74
2023/06/15 03:08:55;;;;;;;3.03;2.80;;;;;;;15.10;58.77;98919.97;5133251;27;43845;-73
2023/06/15 03:11:28;;;;;;;3.17;2.87;;;;;;;15.08;59.15;98913.94;5133410;27;43323;-75
2023/06/15 03:13:57;;;;;;;2.90;2.70;;;;;;;15.07;59.31;98922.91;5133518;27;40886;-74
2023/06/15 03:16:26;;;;;;;3.47;3.17;;;;;;;15.05;59.14;98923.00;5133583;27;41867;-73
2023/06/15 03:18:56;;;;;;;3.23;2.97;;;;;;;15.05;58.79;98927.50;5133974;27;44278;-74
2023/06/15 03:21:25;;;;;;;3.30;3.00;;;;;;;15.03;58.56;98930.28;5133765;27;43195;-74
2023/06/15 03:23:56;;;;;;;3.00;2.80;;;;;;;15.03;58.75;98940.09;5116555;27;38872;-74
2023/06/15 03:26:26;;;;;;;2.60;2.40;;;;;;;15.01;58.34;98940.22;5116356;27;40627;-75
2023/06/15 03:28:57;;;;;;;3.40;3.10;;;;;;;15.01;58.40;98950.88;5115971;27;42377;-75
2023/06/15 03:31:28;;;;;;;3.17;2.97;;;;;;;14.97;58.68;98941.44;5133475;27;43513;-74
2023/06/15 03:33:58;;;;;;;3.47;3.17;;;;;;;14.94;58.40;98948.84;5116854;27;38802;-74
2023/06/15 03:36:29;;;;;;;2.93;2.47;;;;;;;14.94;58.12;98951.50;5116635;27;41045;-75
2023/06/15 03:38:59;;;;;;;2.57;2.40;;;;;;;14.91;58.33;98949.06;5131478;27;43778;-75
2023/06/15 03:41:27;;;;;;;3.30;3.00;;;;;;;14.90;58.12;98950.88;5134184;27;41224;-75
2023/06/15 03:43:57;;;;;;;3.57;3.27;;;;;;;14.89;57.92;98957.19;5134637;27;39740;-73
2023/06/15 03:46:25;;;;;;;4.00;3.27;;;;;;;14.88;57.91;98951.97;5134363;27;42724;-73
2023/06/15 03:48:53;;;;;;;2.73;2.53;;;;;;;14.91;57.96;98962.41;5134564;27;42777;-74
2023/06/15 03:51:21;;;;;;;3.20;3.00;;;;;;;14.95;57.77;98959.38;5133637;27;43152;-75
2023/06/15 03:53:49;;;;;;;3.33;3.03;;;;;;;15.00;57.99;98964.34;5132642;27;39547;-74
2023/06/15 03:56:18;;;;;;;3.70;3.40;;;;;;;14.98;58.82;98961.78;5115870;27;40703;-73
2023/06/15 03:58:45;;;;;;;3.70;3.40;;;;;;;15.06;60.17;98961.22;5116013;27;41769;-73
2023/06/15 04:01:13;;;;;;;3.93;3.63;;;;;;;15.13;60.51;98950.88;5132424;27;42974;-73
2023/06/15 04:03:41;;;;;;;3.53;3.30;;;;;;;15.18;59.96;98960.22;5133413;27;40910;-74
2023/06/15 04:06:09;;;;;;;4.27;3.87;;;;;;;15.25;59.78;98957.91;5116061;27;41651;-73
2023/06/15 04:08:37;;;;;;;4.17;3.77;;;;;;;15.32;59.70;98961.81;5116123;27;42315;-74
2023/06/15 04:11:05;;;;;;;3.70;3.37;;;;;;;15.41;59.75;98961.91;5116090;27;41026;-74
2023/06/15 04:13:35;;;;;;;3.97;3.67;;;;;;;15.48;59.07;98966.72;5115791;27;39185;-73
2023/06/15 04:16:04;;;;;;;4.27;3.97;;;;;;;15.56;59.70;98964.34;5133339;27;41573;-74
2023/06/15 04:18:32;;;;;;;3.80;3.50;;;;;;;15.65;59.82;98968.94;5133347;27;42691;-74
2023/06/15 04:21:00;;;;;;;3.87;3.57;;;;;;;15.73;59.05;98969.13;5132856;27;42018;-73
2023/06/15 04:23:27;;;;;;;3.90;3.47;;;;;;;15.80;58.73;98973.88;5133169;27;39773;-73
2023/06/15 04:25:58;;;;;;;3.40;3.13;;;;;;;15.89;58.80;98972.25;5132698;27;41862;-74
2023/06/15 04:28:26;;;;;;;4.33;4.03;;;;;;;15.99;58.73;98980.34;5119139;27;41704;-73
2023/06/15 04:31:10;;;;;;;3.23;3.00;;;;;;;16.08;58.02;98985.78;5119285;27;41162;-73
2023/06/15 04:33:41;;;;;;;3.80;3.50;;;;;;;16.15;57.52;98989.66;5119947;27;38842;-74
2023/06/15 04:36:12;;;;;;;3.50;3.20;;;;;;;16.24;57.51;98992.53;5120136;27;40735;-73
2023/06/15 04:38:46;;;;;;;3.00;2.80;;;;;;;16.31;57.48;98993.72;5120183;27;42895;-72
2023/06/15 04:41:16;;;;;;;3.50;3.20;;;;;;;16.35;57.17;98990.63;5120242;27;41266;-73
2023/06/15 04:43:45;;;;;;;2.90;2.70;;;;;;;16.41;57.07;98994.63;5119768;27;40085;-74
2023/06/15 04:46:14;;;;;;;3.43;3.13;;;;;;;16.47;56.82;98999.44;5136110;27;42623;-74
2023/06/15 04:48:43;;;;;;;3.60;3.07;;;;;;;16.53;56.93;99004.28;5118908;27;42920;-73
2023/06/15 04:51:11;;;;;;;3.50;3.20;;;;;;;16.50;56.61;98999.19;5135403;27;43268;-74
2023/06/15 04:53:42;;;;;;;3.40;3.10;;;;;;;16.58;56.86;99017.25;5136041;27;41720;-74
2023/06/15 04:56:10;;;;;;;3.57;3.27;;;;;;;16.63;57.05;99013.25;5135796;27;42615;-73
2023/06/15 04:58:38;;;;;;;3.90;3.50;;;;;;;16.70;56.59;99021.59;5136022;27;43134;-74
2023/06/15 05:01:06;;;;;;;3.20;2.97;;;;;;;16.75;56.63;99014.88;5117642;27;41364;-73
2023/06/15 05:03:36;;;;;;;3.73;3.43;;;;;;;16.78;56.72;99020.00;5118689;27;38751;-73
2023/06/15 05:06:04;;;;;;;3.40;3.10;;;;;;;16.80;56.55;99017.19;5118501;27;40818;-74
2023/06/15 05:08:33;;;;;;;3.70;3.40;;;;;;;16.83;56.23;99020.41;5135843;27;42603;-74
2023/06/15 05:11:02;;;;;;;3.87;3.10;;;;;;;16.88;56.25;99015.53;5135591;27;43194;-73
2023/06/15 05:13:32;;;;;;;4.37;4.00;;;;;;;16.97;56.18;99015.72;5118150;27;39481;-74
2023/06/15 05:16:01;;;;;;;3.80;3.50;;;;;;;17.08;55.97;99018.31;5117880;27;40698;-74
2023/06/15 05:18:30;;;;;;;3.73;3.07;;;;;;;17.19;56.15;99012.88;5135649;27;43733;-74
2023/06/15 05:20:59;;;;;;;4.33;3.23;;;;;;;17.33;55.69;99025.06;5135276;27;43178;-74
2023/06/15 05:23:31;;;;;;;3.40;3.10;;;;;;;17.42;56.36;99010.88;5135533;27;41177;-73
2023/06/15 05:26:00;;;;;;;3.87;3.57;;;;;;;17.59;56.16;99024.47;5135044;27;41808;-73
2023/06/15 05:28:27;;;;;;;3.73;3.13;;;;;;;17.73;55.75;99025.94;5118155;27;42746;-74
2023/06/15 05:30:55;;;;;;;3.60;3.30;;;;;;;17.88;55.17;99023.72;5135410;27;43041;-73
2023/06/15 05:33:23;;;;;;;4.57;3.67;;;;;;;18.01;55.30;99027.00;5118584;27;39289;-73
2023/06/15 05:35:51;;;;;;;3.50;3.20;;;;;;;18.14;55.05;99027.59;5136218;27;41469;-73
2023/06/15 05:38:21;;;;;;;4.13;3.73;;;;;;;18.27;55.06;99030.84;5135976;27;43654;-74
2023/06/15 05:40:49;;;;;;;4.53;4.13;;;;;;;18.42;54.88;99035.81;5135834;27;42625;-82
2023/06/15 05:43:17;;;;;;;4.93;4.53;;;;;;;18.40;54.88;99006.44;5124657;27;40472;-80
2023/06/15 05:45:47;;;;;;;4.57;4.17;;;;;;;18.72;54.60;99034.81;5157461;27;41800;-82
2023/06/15 05:48:16;;;;;;;4.27;3.87;;;;;;;18.88;54.20;99030.56;5139686;27;41751;-79
2023/06/15 05:50:43;;;;;;;4.23;3.50;;;;;;;19.03;54.13;99039.00;5139734;27;42213;-80
2023/06/15 05:53:11;;;;;;;4.20;3.80;;;;;;;19.10;54.21;99026.69;5133503;27;38644;-82
2023/06/15 05:55:40;;;;;;;4.00;3.70;;;;;;;19.26;53.58;99024.25;5140063;27;40719;-81
2023/06/15 05:58:08;;;;;;;4.10;3.60;;;;;;;19.43;53.18;99027.97;5156900;27;43747;-79
2023/06/15 06:00:37;;;;;;;4.10;3.67;;;;;;;19.66;52.75;99047.28;5148489;27;42289;-78
2023/06/15 06:03:05;;;;;;;4.50;3.77;;;;;;;19.82;52.69;99054.72;5155078;27;39827;-80
2023/06/15 06:05:40;;;;;;;4.87;4.47;;;;;;;19.92;51.66;99061.72;5154213;27;41634;-79
2023/06/15 06:08:08;;;;;;;4.20;3.80;;;;;;;20.02;52.00;99053.63;5150909;27;43531;-80
2023/06/15 06:10:36;;;;;;;4.07;3.67;;;;;;;20.19;51.75;99063.53;5138752;27;41935;-77
2023/06/15 06:13:28;;;;;;;4.63;3.73;;;;;;;20.28;51.15;99057.25;5154331;27;39973;-77
2023/06/15 06:15:57;;;;;;;4.27;3.90;;;;;;;20.44;50.67;99068.22;5152989;27;41728;-77
2023/06/15 06:18:25;;;;;;;3.83;3.53;;;;;;;20.64;50.24;99073.47;5154758;27;41670;-75
2023/06/15 06:20:53;;;;;;;4.33;3.60;;;;;;;20.78;49.48;99075.56;5153185;27;42687;-76
2023/06/15 06:23:21;;;;;;;4.00;3.57;;;;;;;20.88;49.37;99065.59;5173140;27;40704;-76
2023/06/15 06:25:49;;;;;;;4.80;4.40;;;;;;;21.12;48.96;99089.16;5172961;27;42092;-77
2023/06/15 06:28:17;;;;;;;6.03;3.87;;;;;;;21.23;48.36;99088.94;5155441;27;42781;-76
2023/06/15 06:30:46;;;;;;;4.80;4.30;;;;;;;21.38;47.63;99100.84;5172607;27;42550;-75
2023/06/15 06:33:14;;;;;;;3.77;3.47;;;;;;;21.47;47.87;99094.50;5173230;27;40870;-76
2023/06/15 06:35:41;;;;;;;4.30;3.57;;;;;;;21.61;48.00;99094.91;5173525;27;42455;-77
2023/06/15 06:38:09;;;;;;;4.67;4.17;;;;;;;21.68;47.77;99080.63;5156253;27;43243;-76
2023/06/15 06:40:37;;;;;;;4.93;4.53;;;;;;;21.90;45.89;99094.53;5173398;27;43782;-76
2023/06/15 06:43:05;;;;;;;4.50;3.97;;;;;;;22.19;45.92;99095.00;5173762;27;40885;-76
2023/06/15 06:45:32;;;;;;;4.47;3.93;;;;;;;22.54;45.32;99102.03;5174571;27;42488;-76
2023/06/15 06:48:02;;;;;;;3.70;3.40;;;;;;;22.72;44.72;99097.34;5173596;27;42027;-75
2023/06/15 06:50:30;;;;;;;4.03;3.20;;;;;;;22.85;44.84;99107.69;5173492;27;42217;-76
2023/06/15 06:52:57;;;;;;;4.00;3.70;;;;;;;22.97;45.25;99100.94;5174839;27;40041;-76
2023/06/15 06:55:25;;;;;;;4.43;4.00;;;;;;;23.04;44.46;99101.94;5173306;27;41648;-76
2023/06/15 06:57:52;;;;;;;4.23;3.83;;;;;;;23.17;44.16;99107.66;5156004;27;41934;-76
2023/06/15 07:00:20;;;;;;;3.87;3.57;;;;;;;23.28;43.98;99107.31;5172538;27;41114;-77
2023/06/15 07:02:48;;;;;;;3.90;3.50;;;;;;;23.44;44.34;99102.91;5171485;27;40038;-76
2023/06/15 07:05:18;;;;;;;4.40;3.90;;;;;;;23.55;42.89;99116.09;5173653;27;41578;-77
2023/06/15 07:07:45;;;;;;;3.63;3.33;;;;;;;23.71;42.59;99120.63;5154597;27;42110;-75
2023/06/15 07:10:13;;;;;;;4.50;4.10;;;;;;;23.79;42.53;99121.44;5171888;27;42932;-76
2023/06/15 07:12:41;;;;;;;4.23;3.83;;;;;;;23.94;42.69;99117.00;5154884;27;38935;-78
2023/06/15 07:15:09;;;;;;;3.97;3.67;;;;;;;24.11;42.96;99111.53;5154427;27;40513;-76
2023/06/15 07:17:37;;;;;;;3.57;3.27;;;;;;;24.24;41.96;99118.09;5154729;27;42718;-76
2023/06/15 07:20:06;;;;;;;5.03;4.60;;;;;;;24.37;40.60;99133.75;5154323;27;42302;-76
2023/06/15 07:22:35;;;;;;;4.00;3.70;;;;;;;24.36;40.59;99123.94;5171986;27;39905;-76
2023/06/15 07:25:02;;;;;;;3.60;3.30;;;;;;;24.40;41.20;99117.16;5154373;27;40740;-77
2023/06/15 07:27:30;;;;;;;4.20;3.90;;;;;;;24.55;41.23;99115.38;5154506;27;43227;-76
2023/06/15 07:29:58;;;;;;;4.07;3.53;;;;;;;24.77;39.94;99124.56;5173003;27;43283;-76
2023/06/15 07:32:26;;;;;;;4.20;3.80;;;;;;;25.09;39.20;99122.66;5173386;27;40584;-76
2023/06/15 07:34:53;;;;;;;4.93;3.50;;;;;;;25.75;37.49;99147.13;5172591;27;42561;-74
2023/06/15 07:37:21;;;;;;;4.77;4.30;;;;;;;26.38;35.80;99143.03;5155243;27;42876;-77
2023/06/15 07:39:50;;;;;;;4.27;3.67;;;;;;;26.95;35.76;99149.56;5174036;27;42379;-76
2023/06/15 07:42:18;;;;;;;3.93;3.63;;;;;;;27.01;36.66;99138.75;5155602;27;39033;-77
2023/06/15 07:44:46;;;;;;;3.60;3.30;;;;;;;27.07;35.67;99153.47;5172504;27;42458;-76
2023/06/15 07:47:13;;;;;;;3.57;3.27;;;;;;;27.22;35.45;99151.50;5172830;27;43700;-77
2023/06/15 07:49:41;;;;;;;4.50;3.90;;;;;;;27.48;34.28;99157.16;5155027;27;41068;-76
2023/06/15 07:52:09;;;;;;;4.33;3.27;;;;;;;28.40;32.86;99161.59;5172409;27;38962;-76
2023/06/15 07:54:37;;;;;;;3.83;3.53;;;;;;;29.61;30.11;99188.78;5173635;27;41780;-76
2023/06/15 07:57:07;;;;;;;6.17;3.57;;;;;;;30.62;28.14;99180.22;5172707;27;42624;-77
2023/06/15 07:59:35;;;;;;;3.87;3.47;;;;;;;31.75;28.11;99186.72;5171775;27;42252;-76
2023/06/15 08:02:02;;;;;;;3.83;3.40;;;;;;;32.64;26.26;99197.16;5171029;27;40084;-77
2023/06/15 08:04:30;;;;;;;4.57;4.17;;;;;;;33.41;24.46;99203.72;5174463;27;41575;-77
2023/06/15 08:06:58;;;;;;;4.53;4.10;;;;;;;34.51;24.41;99203.09;5176280;27;43757;-77
2023/06/15 08:09:25;;;;;;;4.37;4.00;;;;;;;35.88;22.88;99198.31;5175945;27;42830;-76
2023/06/15 08:11:53;;;;;;;5.13;4.72;;;;;;;37.18;21.51;99218.09;5175167;27;41928;-77
2023/06/15 08:14:22;;;;;;;4.75;3.70;;;;;;;38.25;21.40;99206.03;5157241;27;40670;-78
2023/06/15 08:16:50;;;;;;;4.43;4.10;;;;;;;39.21;19.44;99219.50;5174835;27;43405;-77
2023/06/15 08:19:18;;;;;;;4.40;3.72;;;;;;;39.90;19.65;99210.75;5157016;27;41276;-77
2023/06/15 08:21:45;;;;;;;3.80;3.50;;;;;;;40.47;18.63;99207.63;5175206;27;40169;-77
2023/06/15 08:24:13;;;;;;;4.10;3.60;;;;;;;40.81;18.25;99202.22;5157044;27;40822;-78
2023/06/15 08:26:42;;;;;;;4.43;4.03;;;;;;;40.44;17.76;99178.47;5157397;27;42057;-77
2023/06/15 08:29:10;;;;;;;4.90;4.50;;;;;;;40.34;18.23;99199.88;5176399;27;42188;-77
2023/06/15 08:31:40;;;;;;;5.47;3.85;;;;;;;40.11;18.55;99185.47;5174901;27;39942;-77
2023/06/15 08:34:08;;;;;;;4.25;3.95;;;;;;;39.78;18.30;99202.69;5176392;27;41627;-77
2023/06/15 08:36:36;;;;;;;5.25;4.20;;;;;;;39.21;18.65;99203.72;5157924;27;41706;-76
2023/06/15 08:39:03;;;;;;;6.03;4.40;;;;;;;38.76;18.85;99196.91;5177313;27;42161;-77
2023/06/15 08:41:31;;;;;;;5.88;4.70;;;;;;;38.19;19.60;99202.44;5176841;27;40048;-76
2023/06/15 08:44:01;;;;;;;4.82;4.43;;;;;;;37.57;19.42;99193.88;5158054;27;42965;-76
2023/06/15 08:46:28;;;;;;;5.15;4.53;;;;;;;37.09;20.10;99180.94;5175370;27;43843;-77
2023/06/15 08:48:59;;;;;;;4.85;4.32;;;;;;;36.67;21.06;99174.09;5158084;27;42291;-77
2023/06/15 08:51:26;;;;;;;5.45;4.97;;;;;;;36.04;21.19;99176.50;5175425;27;39954;-77
2023/06/15 08:53:56;;;;;;;5.23;4.83;;;;;;;35.39;20.93;99177.06;5157813;27;41539;-76
2023/06/15 08:56:24;;;;;;;5.23;4.83;;;;;;;35.01;22.34;99162.03;5157616;27;42839;-77
2023/06/15 08:58:52;;;;;;;6.27;4.90;;;;;;;34.75;23.03;99159.84;5157594;27;42287;-76
2023/06/15 09:01:22;;;;;;;5.03;4.63;;;;;;;34.50;22.34;99163.75;5174503;27;40884;-78
2023/06/15 09:03:53;;;;;;;4.90;4.50;;;;;;;34.02;22.06;99163.22;5174875;27;41652;-76
2023/06/15 09:06:23;;;;;;;5.27;4.80;;;;;;;34.15;22.53;99161.03;5174192;27;42563;-77
2023/06/15 09:08:52;;;;;;;4.47;3.93;;;;;;;34.61;22.18;99172.25;5157171;27;41628;-77
2023/06/15 09:11:23;;;;;;;5.07;4.10;;;;;;;34.75;21.64;99170.84;5156361;27;39991;-77
2023/06/15 09:13:51;;;;;;;4.73;4.33;;;;;;;34.51;22.10;99159.94;5155530;27;41013;-76
2023/06/15 09:16:19;;;;;;;4.67;4.30;;;;;;;34.50;22.39;99147.25;5155929;27;41719;-77
2023/06/15 09:18:49;;;;;;;5.33;4.83;;;;;;;35.16;21.81;99150.47;5156413;27;41494;-77
2023/06/15 09:21:18;;;;;;;5.00;4.47;;;;;;;35.50;21.88;99151.38;5155507;27;39561;-76
2023/06/15 09:23:48;;;;;;;4.87;4.30;;;;;;;35.26;21.75;99157.03;5174568;27;42620;-77
2023/06/15 09:26:22;;;;;;;4.83;4.33;;;;;;;35.06;21.42;99162.16;5173382;27;41641;-76
2023/06/15 09:28:52;;;;;;;4.37;4.07;;;;;;;34.96;21.44;99172.97;5156132;27;42142;-76
2023/06/15 09:31:30;;;;;;;4.43;4.03;;;;;;;34.87;21.57;99167.00;5173346;27;40372;-77
2023/06/15 09:34:03;;;;;;;4.17;3.87;;;;;;;35.42;21.86;99160.06;5174219;27;42640;-76
2023/06/15 09:36:41;;;;;;;5.00;4.13;;;;;;;36.25;20.60;99171.06;5156734;27;42766;-77
2023/06/15 09:39:10;;;;;;;4.93;4.55;;;;;;;37.14;20.43;99162.50;5157150;27;41155;-78
2023/06/15 09:41:52;;;;;;;4.38;4.00;;;;;;;38.22;19.52;99162.31;5156949;27;39739;-77
2023/06/15 09:44:20;;;;;;;5.05;4.65;;;;;;;39.33;18.36;99172.97;5156989;27;41824;-76
2023/06/15 09:46:50;;;;;;;4.80;4.32;;;;;;;40.19;18.30;99171.03;5175643;27;42858;-77
2023/06/15 09:49:23;;;;;;;4.53;4.13;;;;;;;41.02;17.67;99175.19;5156167;27;41161;-77
2023/06/15 09:51:51;;;;;;;4.18;3.83;;;;;;;41.90;17.18;99163.97;5172425;27;41420;-77
2023/06/15 09:54:24;;;;;;;4.50;4.10;;;;;;;42.58;16.14;99181.34;5174058;27;42611;-77
2023/06/15 09:56:52;;;;;;;3.88;3.58;;;;;;;42.94;15.98;99167.78;5171025;27;43436;-77
2023/06/15 09:59:21;;;;;;;3.90;3.60;;;;;;;43.22;16.34;99168.00;5173445;27;43239;-78
2023/06/15 10:01:50;;;;;;;5.03;3.67;;;;;;;43.23;16.05;99164.91;5169537;27;40564;-78
2023/06/15 10:04:25;;;;;;;4.03;3.72;;;;;;;42.60;15.94;99169.91;5172726;27;42452;-78
2023/06/15 10:07:00;;;;;;;3.25;3.05;;;;;;;41.28;16.80;99160.03;5155999;27;42725;-78
2023/06/15 10:09:36;;;;;;;4.28;3.83;;;;;;;39.99;17.64;99157.19;5155476;27;41324;-77
2023/06/15 10:12:09;;;;;;;4.50;4.10;;;;;;;39.14;18.78;99150.50;5171248;27;39999;-77
2023/06/15 10:14:44;;;;;;;3.58;3.38;;;;;;;38.78;18.88;99150.41;5169945;27;42620;-76
2023/06/15 10:17:16;;;;;;;4.05;3.72;;;;;;;38.32;19.03;99146.59;5171140;27;42858;-77
2023/06/15 10:19:47;;;;;;;4.47;4.07;;;;;;;38.08;18.92;99146.19;5155531;27;42058;-78
2023/06/15 10:22:18;;;;;;;4.18;3.88;;;;;;;37.68;19.53;99130.16;5172675;27;39950;-76
2023/06/15 10:24:48;;;;;;;4.35;4.03;;;;;;;37.40;20.40;99127.69;5154997;27;40500;-77
2023/06/15 10:27:16;;;;;;;5.07;3.80;;;;;;;37.14;19.93;99128.50;5173938;27;43914;-78
2023/06/15 10:29:52;;;;;;;4.95;3.83;;;;;;;36.50;20.99;99096.06;5172436;27;42524;-77
2023/06/15 10:32:27;;;;;;;4.03;3.70;;;;;;;35.83;21.29;99109.22;5154966;27;39280;-77
2023/06/15 10:35:03;;;;;;;3.87;3.37;;;;;;;34.95;21.93;99116.25;5173675;27;40529;-77
2023/06/15 10:37:37;;;;;;;3.77;3.37;;;;;;;34.26;22.36;99112.63;5170374;27;43539;-76
2023/06/15 10:40:15;;;;;;;3.70;3.40;;;;;;;34.22;22.92;99103.19;5172952;27;40899;-77
2023/06/15 10:42:44;;;;;;;3.80;3.50;;;;;;;33.92;23.02;99105.25;5170334;27;41853;-77
2023/06/15 10:45:28;;;;;;;4.50;3.40;;;;;;;33.72;23.58;99100.13;5174344;27;42741;-77
2023/06/15 10:47:58;;;;;;;4.67;4.27;;;;;;;33.96;23.86;99093.56;5156401;27;42799;-77
2023/06/15 10:50:26;;;;;;;3.63;3.33;;;;;;;33.69;23.31;99095.09;5173170;27;42875;-76
2023/06/15 10:52:56;;;;;;;4.13;3.80;;;;;;;33.25;24.57;99085.53;5174891;27;39931;-76
2023/06/15 10:55:28;;;;;;;3.70;3.40;;;;;;;33.12;24.09;99089.31;5156792;27;20243;-77
2023/06/15 10:58:15;;;;;;;6.27;3.53;;;;;;;33.38;24.13;99086.13;5154394;27;41369;-76
2023/06/15 11:00:43;;;;;;;3.70;3.40;;;;;;;33.57;23.50;99086.88;5154429;27;41414;-77
2023/06/15 11:03:27;;;;;;;3.80;3.50;;;;;;;33.72;23.33;99089.13;5173789;27;40044;-76
2023/06/15 11:06:04;;;;;;;4.17;3.17;;;;;;;33.93;22.13;99102.28;5171297;27;41604;-77
2023/06/15 11:08:32;;;;;;;3.83;3.17;;;;;;;34.01;23.52;99079.91;5154820;27;42909;-77
2023/06/15 11:11:03;;;;;;;3.57;3.27;;;;;;;34.25;23.31;99097.19;5154641;27;42205;-77
2023/06/15 11:13:32;;;;;;;3.17;2.87;;;;;;;34.51;22.87;99091.16;5173982;27;39448;-78
2023/06/15 11:16:08;;;;;;;3.60;3.30;;;;;;;34.94;23.61;99076.03;5171909;27;42775;-76
2023/06/15 11:18:36;;;;;;;3.93;3.40;;;;;;;35.30;21.46;99094.03;5172198;27;41659;-77
2023/06/15 11:21:04;;;;;;;4.13;2.90;;;;;;;35.11;21.24;99098.94;5171792;27;42194;-76
2023/06/15 11:23:34;;;;;;;3.67;2.67;;;;;;;34.85;21.74;99094.88;5173645;27;39808;-77
2023/06/15 11:26:03;;;;;;;2.80;2.60;;;;;;;34.60;22.37;99077.88;5171904;27;40643;-77
2023/06/15 11:28:34;;;;;;;4.53;2.87;;;;;;;34.36;21.82;99070.78;5172128;27;42917;-77
2023/06/15 11:31:04;;;;;;;3.50;3.20;;;;;;;34.26;21.98;99093.38;5153893;27;41596;-77
2023/06/15 11:33:36;;;;;;;3.50;3.20;;;;;;;34.51;21.98;99085.66;5172428;27;39857;-77
2023/06/15 11:36:06;;;;;;;4.90;3.07;;;;;;;34.89;22.56;99078.69;5173767;27;42684;-76
2023/06/15 11:38:35;;;;;;;3.00;2.80;;;;;;;34.68;22.19;99071.97;5176597;27;43188;-76
2023/06/15 11:41:06;;;;;;;3.23;3.00;;;;;;;34.47;22.82;99076.25;5176489;27;42202;-76
2023/06/15 11:43:36;;;;;;;3.20;3.00;;;;;;;34.08;23.91;99033.06;5159051;27;38783;-76
2023/06/15 11:46:04;;;;;;;5.20;3.20;;;;;;;34.17;23.05;99067.34;5159014;27;42088;-76